Ana Sayfa
METAR-TAF:

METAR-TAF

Havaalanları :

Mıkolayiv, Ukrayna

Enlem: 47-03-29N, Boylam: 031-55-15E, yükseklik: 56 m

Güncel hava durumu gözlemi

Rapor saat 08:30 UTC de 23 dakika önce yapıldı.
Rüzgar güneydoğudan 4 kt, doğu/kuzeydoğu ve güney/güneybatı arasında değişken
Sıcaklık 32°C
Nem 32%
Basınç 1015 hPa
Görüş mesafesi 10 km veya daha fazla
1500 m altında bulut yok ve kümülonimbus yok

METAR: UKON 150830Z 14002MPS 060V210 CAVOK 32/13 Q1015 R04/090075 NOSIG

Saat: 11:53 (08:53 UTC)

Tahmin

Rapor saat 08:03 UTC de 50 dakika önce yapıldı.
Ayın 15'si saat 09 UTC'den ayın 15'si saat 18 UTC'ye kadar geçerli Tahmin
Rüzgar doğu/güneydoğudan 6 kt
Görüş mesafesi 10 km veya daha fazla
3000 ft yükseklikte parçalı bulutlu, Kümülonimbus.

TAF: UKON 150803Z 1509/1518 12003MPS 9999 SCT030CB TX35/1513Z TN27/1518Z

4.000'den fazla havaalanı için hava durumu gözlemleri ve tahminleri (METAR ve TAF raporları).

Kullanılabilir istasyonlar harita üzerinde sarı ve kırmızı noktalarla gösterilir.

İstasyonun adını görmek için fareyi noktanın üzerinde gezdirin.

Sonrasında hava gözlem ve tahminlerini görmek için tıklayın.

Haritayı değiştirmek için: yaklaştırmak için siyah artı işaretli yeşil düğmeye ve uzaklaştırmak için de eksi işaretli düğmeye hızla tıklayın; bitişik haritalar için yeşil okları kullanın.


METAR-TAF: